sensor_id;sensor_type;location;lat;lon;timestamp;temperature;humidity
32107;DHT22;18622;51.998;10.440;2022-10-22T07:03:51;16.50;99.90
32107;DHT22;18622;51.998;10.440;2022-10-22T07:06:19;16.60;99.90
32107;DHT22;18622;51.998;10.440;2022-10-22T07:08:47;16.60;99.90
32107;DHT22;18622;51.998;10.440;2022-10-22T07:11:22;16.60;99.90
32107;DHT22;18622;51.998;10.440;2022-10-22T07:13:46;16.70;99.90
32107;DHT22;18622;51.998;10.440;2022-10-22T07:16:16;16.70;99.90
32107;DHT22;18622;51.998;10.440;2022-10-22T07:18:45;16.80;99.90
32107;DHT22;18622;51.998;10.440;2022-10-22T07:21:15;16.90;99.90
32107;DHT22;18622;51.998;10.440;2022-10-22T07:23:43;17.00;99.90
32107;DHT22;18622;51.998;10.440;2022-10-22T07:26:14;17.10;99.90
32107;DHT22;18622;51.998;10.440;2022-10-22T07:28:42;17.20;99.90
32107;DHT22;18622;51.998;10.440;2022-10-22T07:31:12;17.30;99.90
32107;DHT22;18622;51.998;10.440;2022-10-22T07:33:40;17.40;99.90
32107;DHT22;18622;51.998;10.440;2022-10-22T07:38:37;17.50;99.90
32107;DHT22;18622;51.998;10.440;2022-10-22T07:41:05;17.60;99.90
32107;DHT22;18622;51.998;10.440;2022-10-22T07:43:32;17.60;99.90
32107;DHT22;18622;51.998;10.440;2022-10-22T07:46:00;17.60;99.90
32107;DHT22;18622;51.998;10.440;2022-10-22T07:48:28;17.60;99.90
32107;DHT22;18622;51.998;10.440;2022-10-22T07:50:56;17.60;99.90
32107;DHT22;18622;51.998;10.440;2022-10-22T07:53:24;17.50;99.90
32107;DHT22;18622;51.998;10.440;2022-10-22T07:55:52;17.40;99.90
32107;DHT22;18622;51.998;10.440;2022-10-22T07:58:24;17.40;99.90
32107;DHT22;18622;51.998;10.440;2022-10-22T08:15:44;17.30;99.90
32107;DHT22;18622;51.998;10.440;2022-10-22T08:18:13;17.30;99.90
32107;DHT22;18622;51.998;10.440;2022-10-22T08:23:09;17.50;99.90
32107;DHT22;18622;51.998;10.440;2022-10-22T08:25:37;17.70;99.90
32107;DHT22;18622;51.998;10.440;2022-10-22T08:28:05;17.80;99.90
32107;DHT22;18622;51.998;10.440;2022-10-22T08:33:02;18.20;99.90
32107;DHT22;18622;51.998;10.440;2022-10-22T08:35:30;18.40;99.90
32107;DHT22;18622;51.998;10.440;2022-10-22T08:37:58;18.60;99.90
32107;DHT22;18622;51.998;10.440;2022-10-22T08:40:29;18.80;99.90
32107;DHT22;18622;51.998;10.440;2022-10-22T08:43:29;18.90;99.90
32107;DHT22;18622;51.998;10.440;2022-10-22T08:46:00;19.20;99.90
32107;DHT22;18622;51.998;10.440;2022-10-22T08:48:39;19.40;99.90
32107;DHT22;18622;51.998;10.440;2022-10-22T08:51:04;19.50;99.90
32107;DHT22;18622;51.998;10.440;2022-10-22T08:53:44;19.60;99.90
32107;DHT22;18622;51.998;10.440;2022-10-22T08:56:07;19.70;99.90
32107;DHT22;18622;51.998;10.440;2022-10-22T08:58:50;19.80;99.90
32107;DHT22;18622;51.998;10.440;2022-10-22T09:03:56;20.00;99.50
32107;DHT22;18622;51.998;10.440;2022-10-22T09:06:25;20.10;99.40
32107;DHT22;18622;51.998;10.440;2022-10-22T09:08:54;20.30;98.60
32107;DHT22;18622;51.998;10.440;2022-10-22T09:11:37;20.50;98.10
32107;DHT22;18622;51.998;10.440;2022-10-22T09:14:05;20.70;96.50
32107;DHT22;18622;51.998;10.440;2022-10-22T09:19:28;21.40;95.50
32107;DHT22;18622;51.998;10.440;2022-10-22T09:27:25;22.20;93.50
32107;DHT22;18622;51.998;10.440;2022-10-22T09:32:19;22.70;92.70
32107;DHT22;18622;51.998;10.440;2022-10-22T09:34:49;23.10;91.70
32107;DHT22;18622;51.998;10.440;2022-10-22T09:37:18;23.40;91.20
32107;DHT22;18622;51.998;10.440;2022-10-22T09:39:52;23.70;90.40
32107;DHT22;18622;51.998;10.440;2022-10-22T09:44:54;24.20;86.30
32107;DHT22;18622;51.998;10.440;2022-10-22T09:47:37;24.20;86.40
32107;DHT22;18622;51.998;10.440;2022-10-22T09:50:26;24.20;84.10
32107;DHT22;18622;51.998;10.440;2022-10-22T10:02:57;24.80;79.00
32107;DHT22;18622;51.998;10.440;2022-10-22T10:07:55;25.00;76.90
32107;DHT22;18622;51.998;10.440;2022-10-22T10:10:36;25.00;75.80
32107;DHT22;18622;51.998;10.440;2022-10-22T10:33:46;26.20;69.40
32107;DHT22;18622;51.998;10.440;2022-10-22T10:36:29;26.40;69.40
32107;DHT22;18622;51.998;10.440;2022-10-22T10:49:17;27.00;64.80
32107;DHT22;18622;51.998;10.440;2022-10-22T11:02:24;27.50;62.80
32107;DHT22;18622;51.998;10.440;2022-10-22T11:10:29;27.90;60.60
32107;DHT22;18622;51.998;10.440;2022-10-22T11:20:48;28.50;58.20
32107;DHT22;18622;51.998;10.440;2022-10-22T11:25:47;28.40;58.60
32107;DHT22;18622;51.998;10.440;2022-10-22T11:28:19;28.70;58.50
32107;DHT22;18622;51.998;10.440;2022-10-22T11:30:48;29.20;56.90
32107;DHT22;18622;51.998;10.440;2022-10-22T11:33:20;29.20;56.40
32107;DHT22;18622;51.998;10.440;2022-10-22T11:35:47;29.30;56.30
32107;DHT22;18622;51.998;10.440;2022-10-22T11:38:19;29.60;55.00
32107;DHT22;18622;51.998;10.440;2022-10-22T11:43:31;28.00;56.10
32107;DHT22;18622;51.998;10.440;2022-10-22T11:48:59;25.30;61.30
32107;DHT22;18622;51.998;10.440;2022-10-22T11:51:35;24.40;63.60
32107;DHT22;18622;51.998;10.440;2022-10-22T11:57:11;24.10;65.20
32107;DHT22;18622;51.998;10.440;2022-10-22T12:02:39;23.20;68.50
32107;DHT22;18622;51.998;10.440;2022-10-22T12:05:31;22.80;69.90
32107;DHT22;18622;51.998;10.440;2022-10-22T12:13:28;22.80;72.30
32107;DHT22;18622;51.998;10.440;2022-10-22T12:15:53;24.20;70.60
32107;DHT22;18622;51.998;10.440;2022-10-22T12:18:34;25.80;66.00
32107;DHT22;18622;51.998;10.440;2022-10-22T12:20:56;27.20;62.50
32107;DHT22;18622;51.998;10.440;2022-10-22T12:23:30;28.20;60.10
32107;DHT22;18622;51.998;10.440;2022-10-22T12:25:55;28.90;57.40
32107;DHT22;18622;51.998;10.440;2022-10-22T12:28:23;29.10;56.10
32107;DHT22;18622;51.998;10.440;2022-10-22T12:30:51;29.30;56.30
32107;DHT22;18622;51.998;10.440;2022-10-22T12:33:22;29.80;55.70
32107;DHT22;18622;51.998;10.440;2022-10-22T12:35:53;30.20;53.30
32107;DHT22;18622;51.998;10.440;2022-10-22T12:38:23;30.10;53.00
32107;DHT22;18622;51.998;10.440;2022-10-22T12:40:54;30.10;53.40
32107;DHT22;18622;51.998;10.440;2022-10-22T12:43:27;30.20;52.80
32107;DHT22;18622;51.998;10.440;2022-10-22T12:45:55;30.40;52.70
32107;DHT22;18622;51.998;10.440;2022-10-22T12:48:27;30.80;51.90
32107;DHT22;18622;51.998;10.440;2022-10-22T12:50:58;31.30;51.00
32107;DHT22;18622;51.998;10.440;2022-10-22T12:53:41;31.40;48.90
32107;DHT22;18622;51.998;10.440;2022-10-22T12:56:05;30.70;50.20
32107;DHT22;18622;51.998;10.440;2022-10-22T12:58:45;29.60;51.50
32107;DHT22;18622;51.998;10.440;2022-10-22T13:01:15;28.30;53.50
32107;DHT22;18622;51.998;10.440;2022-10-22T13:04:03;27.90;55.30
32107;DHT22;18622;51.998;10.440;2022-10-22T13:09:04;28.80;53.00
32107;DHT22;18622;51.998;10.440;2022-10-22T13:11:39;28.10;54.50
32107;DHT22;18622;51.998;10.440;2022-10-22T13:14:19;27.80;55.20
32107;DHT22;18622;51.998;10.440;2022-10-22T13:17:05;27.40;55.20
32107;DHT22;18622;51.998;10.440;2022-10-22T13:22:02;25.40;59.50
32107;DHT22;18622;51.998;10.440;2022-10-22T13:36:55;25.30;60.70
32107;DHT22;18622;51.998;10.440;2022-10-22T13:44:21;25.20;60.20
32107;DHT22;18622;51.998;10.440;2022-10-22T13:49:19;24.40;63.90
32107;DHT22;18622;51.998;10.440;2022-10-22T14:06:43;24.00;64.20
32107;DHT22;18622;51.998;10.440;2022-10-22T14:16:42;23.80;64.70
32107;DHT22;18622;51.998;10.440;2022-10-22T14:19:14;23.70;65.00
32107;DHT22;18622;51.998;10.440;2022-10-22T14:21:42;23.20;66.20
32107;DHT22;18622;51.998;10.440;2022-10-22T14:29:07;22.70;68.60
32107;DHT22;18622;51.998;10.440;2022-10-22T14:46:28;21.10;74.70
32107;DHT22;18622;51.998;10.440;2022-10-22T14:56:22;19.90;80.80
32107;DHT22;18622;51.998;10.440;2022-10-22T14:58:50;19.40;83.20
32107;DHT22;18622;51.998;10.440;2022-10-22T15:01:18;18.90;86.40
32107;DHT22;18622;51.998;10.440;2022-10-22T15:03:46;18.40;89.90
32107;DHT22;18622;51.998;10.440;2022-10-22T15:06:14;18.30;91.50
32107;DHT22;18622;51.998;10.440;2022-10-22T15:08:43;18.50;93.60
32107;DHT22;18622;51.998;10.440;2022-10-22T15:11:11;18.80;94.50
32107;DHT22;18622;51.998;10.440;2022-10-22T15:13:39;19.30;94.90
32107;DHT22;18622;51.998;10.440;2022-10-22T15:16:09;20.20;93.60
32107;DHT22;18622;51.998;10.440;2022-10-22T15:18:37;20.90;91.70
32107;DHT22;18622;51.998;10.440;2022-10-22T15:21:10;20.90;91.30
32107;DHT22;18622;51.998;10.440;2022-10-22T15:23:35;20.50;91.30
32107;DHT22;18622;51.998;10.440;2022-10-22T15:26:06;19.90;92.10
32107;DHT22;18622;51.998;10.440;2022-10-22T15:28:35;19.40;93.00
32107;DHT22;18622;51.998;10.440;2022-10-22T15:31:03;19.00;94.00
32107;DHT22;18622;51.998;10.440;2022-10-22T15:33:31;18.60;95.20
32107;DHT22;18622;51.998;10.440;2022-10-22T15:36:10;18.30;96.00
32107;DHT22;18622;51.998;10.440;2022-10-22T15:38:39;18.00;96.90
32107;DHT22;18622;51.998;10.440;2022-10-22T15:41:07;17.80;97.80
32107;DHT22;18622;51.998;10.440;2022-10-22T15:43:36;17.50;98.50
32107;DHT22;18622;51.998;10.440;2022-10-22T15:46:12;17.30;99.30
32107;DHT22;18622;51.998;10.440;2022-10-22T15:48:41;17.20;99.90
32107;DHT22;18622;51.998;10.440;2022-10-22T15:51:11;17.00;99.90
32107;DHT22;18622;51.998;10.440;2022-10-22T15:53:39;16.90;99.90
32107;DHT22;18622;51.998;10.440;2022-10-22T15:56:08;16.80;99.90
32107;DHT22;18622;51.998;10.440;2022-10-22T15:58:37;16.70;99.90
32107;DHT22;18622;51.998;10.440;2022-10-22T16:01:10;16.50;99.90
32107;DHT22;18622;51.998;10.440;2022-10-22T16:03:39;16.40;99.90
32107;DHT22;18622;51.998;10.440;2022-10-22T16:06:07;16.30;99.90
32107;DHT22;18622;51.998;10.440;2022-10-22T16:08:35;16.20;99.90
32107;DHT22;18622;51.998;10.440;2022-10-22T16:11:03;16.20;99.90
32107;DHT22;18622;51.998;10.440;2022-10-22T16:13:31;16.10;99.90
32107;DHT22;18622;51.998;10.440;2022-10-22T16:16:02;16.00;99.90
32107;DHT22;18622;51.998;10.440;2022-10-22T16:18:29;15.90;99.90
32107;DHT22;18622;51.998;10.440;2022-10-22T16:20:57;15.70;99.90
32107;DHT22;18622;51.998;10.440;2022-10-22T16:23:25;15.60;99.90
32107;DHT22;18622;51.998;10.440;2022-10-22T16:25:53;15.50;99.90
32107;DHT22;18622;51.998;10.440;2022-10-22T16:28:20;15.40;99.90
32107;DHT22;18622;51.998;10.440;2022-10-22T16:30:51;15.30;99.90
32107;DHT22;18622;51.998;10.440;2022-10-22T16:33:19;15.20;99.90
32107;DHT22;18622;51.998;10.440;2022-10-22T16:35:47;15.10;99.90
32107;DHT22;18622;51.998;10.440;2022-10-22T16:38:15;15.10;99.90
32107;DHT22;18622;51.998;10.440;2022-10-22T16:40:44;15.10;99.90
32107;DHT22;18622;51.998;10.440;2022-10-22T16:43:12;15.10;99.90
32107;DHT22;18622;51.998;10.440;2022-10-22T16:45:47;15.00;99.90
32107;DHT22;18622;51.998;10.440;2022-10-22T16:48:16;14.90;99.90
32107;DHT22;18622;51.998;10.440;2022-10-22T16:50:44;14.90;99.90
32107;DHT22;18622;51.998;10.440;2022-10-22T16:53:11;14.80;99.90
32107;DHT22;18622;51.998;10.440;2022-10-22T16:55:40;14.80;99.90
32107;DHT22;18622;51.998;10.440;2022-10-22T16:58:07;14.80;99.90
32107;DHT22;18622;51.998;10.440;2022-10-22T17:00:36;14.80;99.90
32107;DHT22;18622;51.998;10.440;2022-10-22T17:03:03;14.80;99.90
32107;DHT22;18622;51.998;10.440;2022-10-22T17:05:34;14.80;99.90
32107;DHT22;18622;51.998;10.440;2022-10-22T17:08:02;14.80;99.90
32107;DHT22;18622;51.998;10.440;2022-10-22T17:10:30;14.90;99.90
32107;DHT22;18622;51.998;10.440;2022-10-22T17:12:58;14.90;99.90
32107;DHT22;18622;51.998;10.440;2022-10-22T17:15:25;15.00;99.90
32107;DHT22;18622;51.998;10.440;2022-10-22T17:17:53;15.00;99.90
32107;DHT22;18622;51.998;10.440;2022-10-22T17:20:21;15.10;99.90
32107;DHT22;18622;51.998;10.440;2022-10-22T17:22:49;15.20;99.90
32107;DHT22;18622;51.998;10.440;2022-10-22T17:25:20;15.10;99.90
32107;DHT22;18622;51.998;10.440;2022-10-22T17:27:48;15.10;99.90
32107;DHT22;18622;51.998;10.440;2022-10-22T17:30:18;15.10;99.90
32107;DHT22;18622;51.998;10.440;2022-10-22T17:32:46;15.00;99.90
32107;DHT22;18622;51.998;10.440;2022-10-22T17:35:14;15.00;99.90
32107;DHT22;18622;51.998;10.440;2022-10-22T17:37:42;14.90;99.90
32107;DHT22;18622;51.998;10.440;2022-10-22T17:40:10;14.80;99.90
32107;DHT22;18622;51.998;10.440;2022-10-22T17:42:40;14.70;99.90
32107;DHT22;18622;51.998;10.440;2022-10-22T17:45:07;14.70;99.90
32107;DHT22;18622;51.998;10.440;2022-10-22T17:47:36;14.60;99.90
32107;DHT22;18622;51.998;10.440;2022-10-22T17:50:03;14.50;99.90
32107;DHT22;18622;51.998;10.440;2022-10-22T17:52:32;14.40;99.90
32107;DHT22;18622;51.998;10.440;2022-10-22T17:55:02;14.30;99.90
32107;DHT22;18622;51.998;10.440;2022-10-22T17:57:30;14.20;99.90
32107;DHT22;18622;51.998;10.440;2022-10-22T17:59:57;14.20;99.90
32107;DHT22;18622;51.998;10.440;2022-10-22T18:02:25;14.10;99.90
32107;DHT22;18622;51.998;10.440;2022-10-22T18:04:53;14.00;99.90
32107;DHT22;18622;51.998;10.440;2022-10-22T18:07:21;13.90;99.90
32107;DHT22;18622;51.998;10.440;2022-10-22T18:09:49;13.80;99.90
32107;DHT22;18622;51.998;10.440;2022-10-22T18:12:17;13.70;99.90
32107;DHT22;18622;51.998;10.440;2022-10-22T18:14:45;13.70;99.90
32107;DHT22;18622;51.998;10.440;2022-10-22T18:17:12;13.60;99.90
32107;DHT22;18622;51.998;10.440;2022-10-22T18:19:40;13.50;99.90
32107;DHT22;18622;51.998;10.440;2022-10-22T18:22:08;13.50;99.90
32107;DHT22;18622;51.998;10.440;2022-10-22T18:24:36;13.40;99.90
32107;DHT22;18622;51.998;10.440;2022-10-22T18:27:04;13.40;99.90
32107;DHT22;18622;51.998;10.440;2022-10-22T18:29:32;13.40;99.90
32107;DHT22;18622;51.998;10.440;2022-10-22T18:32:00;13.30;99.90
32107;DHT22;18622;51.998;10.440;2022-10-22T18:34:31;13.30;99.90
32107;DHT22;18622;51.998;10.440;2022-10-22T18:36:59;13.40;99.90
32107;DHT22;18622;51.998;10.440;2022-10-22T18:39:26;13.40;99.90
32107;DHT22;18622;51.998;10.440;2022-10-22T18:41:54;13.50;99.90
32107;DHT22;18622;51.998;10.440;2022-10-22T18:44:22;13.60;99.90
32107;DHT22;18622;51.998;10.440;2022-10-22T18:46:50;13.60;99.90
32107;DHT22;18622;51.998;10.440;2022-10-22T18:49:18;13.60;99.90
32107;DHT22;18622;51.998;10.440;2022-10-22T18:51:47;13.60;99.90
32107;DHT22;18622;51.998;10.440;2022-10-22T18:54:30;13.60;99.90
32107;DHT22;18622;51.998;10.440;2022-10-22T18:56:59;13.60;99.90
32107;DHT22;18622;51.998;10.440;2022-10-22T18:59:27;13.60;99.90
32107;DHT22;18622;51.998;10.440;2022-10-22T19:02:00;13.60;99.90
32107;DHT22;18622;51.998;10.440;2022-10-22T19:04:28;13.60;99.90
32107;DHT22;18622;51.998;10.440;2022-10-22T19:06:58;13.70;99.90
32107;DHT22;18622;51.998;10.440;2022-10-22T19:09:26;13.70;99.90
32107;DHT22;18622;51.998;10.440;2022-10-22T19:11:54;13.70;99.90
32107;DHT22;18622;51.998;10.440;2022-10-22T19:14:22;13.80;99.90
32107;DHT22;18622;51.998;10.440;2022-10-22T19:16:49;13.80;99.90
32107;DHT22;18622;51.998;10.440;2022-10-22T19:19:19;13.80;99.90
32107;DHT22;18622;51.998;10.440;2022-10-22T19:21:47;13.80;99.90
32107;DHT22;18622;51.998;10.440;2022-10-22T19:24:16;13.80;99.90
32107;DHT22;18622;51.998;10.440;2022-10-22T19:26:45;13.90;99.90
32107;DHT22;18622;51.998;10.440;2022-10-22T19:29:17;14.00;99.90
32107;DHT22;18622;51.998;10.440;2022-10-22T19:31:45;14.10;99.90
32107;DHT22;18622;51.998;10.440;2022-10-22T19:34:14;14.20;99.90
32107;DHT22;18622;51.998;10.440;2022-10-22T19:36:42;14.20;99.90
32107;DHT22;18622;51.998;10.440;2022-10-22T19:39:09;14.10;99.90
32107;DHT22;18622;51.998;10.440;2022-10-22T19:41:39;14.00;99.90
32107;DHT22;18622;51.998;10.440;2022-10-22T19:44:08;13.90;99.90
32107;DHT22;18622;51.998;10.440;2022-10-22T19:46:35;13.80;99.90
32107;DHT22;18622;51.998;10.440;2022-10-22T19:49:03;13.70;99.90
32107;DHT22;18622;51.998;10.440;2022-10-22T19:51:32;13.60;99.90
32107;DHT22;18622;51.998;10.440;2022-10-22T19:54:03;13.50;99.90
32107;DHT22;18622;51.998;10.440;2022-10-22T19:56:30;13.40;99.90
32107;DHT22;18622;51.998;10.440;2022-10-22T19:58:58;13.30;99.90
32107;DHT22;18622;51.998;10.440;2022-10-22T20:01:26;13.20;99.90
32107;DHT22;18622;51.998;10.440;2022-10-22T20:03:54;13.10;99.90
32107;DHT22;18622;51.998;10.440;2022-10-22T20:06:22;13.00;99.90
32107;DHT22;18622;51.998;10.440;2022-10-22T20:08:50;13.00;99.90
32107;DHT22;18622;51.998;10.440;2022-10-22T20:11:21;12.90;99.90
32107;DHT22;18622;51.998;10.440;2022-10-22T20:13:49;12.90;99.90
32107;DHT22;18622;51.998;10.440;2022-10-22T20:16:19;12.80;99.90
32107;DHT22;18622;51.998;10.440;2022-10-22T20:18:49;12.80;99.90
32107;DHT22;18622;51.998;10.440;2022-10-22T20:21:17;12.80;99.90
32107;DHT22;18622;51.998;10.440;2022-10-22T20:23:46;12.80;99.90
32107;DHT22;18622;51.998;10.440;2022-10-22T20:26:13;12.70;99.90
32107;DHT22;18622;51.998;10.440;2022-10-22T20:28:41;12.70;99.90
32107;DHT22;18622;51.998;10.440;2022-10-22T20:31:11;12.70;99.90
32107;DHT22;18622;51.998;10.440;2022-10-22T20:33:39;12.70;99.90
32107;DHT22;18622;51.998;10.440;2022-10-22T20:36:11;12.70;99.90
32107;DHT22;18622;51.998;10.440;2022-10-22T20:38:37;12.60;99.90
32107;DHT22;18622;51.998;10.440;2022-10-22T20:41:08;12.60;99.90
32107;DHT22;18622;51.998;10.440;2022-10-22T20:43:35;12.60;99.90
32107;DHT22;18622;51.998;10.440;2022-10-22T20:46:03;12.50;99.90
32107;DHT22;18622;51.998;10.440;2022-10-22T20:48:31;12.50;99.90
32107;DHT22;18622;51.998;10.440;2022-10-22T20:51:00;12.40;99.90
32107;DHT22;18622;51.998;10.440;2022-10-22T20:53:27;12.40;99.90
32107;DHT22;18622;51.998;10.440;2022-10-22T20:55:56;12.40;99.90
32107;DHT22;18622;51.998;10.440;2022-10-22T20:58:25;12.30;99.90
32107;DHT22;18622;51.998;10.440;2022-10-22T21:00:56;12.30;99.90
32107;DHT22;18622;51.998;10.440;2022-10-22T21:03:24;12.30;99.90
32107;DHT22;18622;51.998;10.440;2022-10-22T21:05:51;12.20;99.90
32107;DHT22;18622;51.998;10.440;2022-10-22T21:08:19;12.10;99.90
32107;DHT22;18622;51.998;10.440;2022-10-22T21:10:47;12.10;99.90
32107;DHT22;18622;51.998;10.440;2022-10-22T21:13:15;12.10;99.90
32107;DHT22;18622;51.998;10.440;2022-10-22T21:15:45;12.00;99.90
32107;DHT22;18622;51.998;10.440;2022-10-22T21:18:12;12.00;99.90
32107;DHT22;18622;51.998;10.440;2022-10-22T21:20:41;11.90;99.90
32107;DHT22;18622;51.998;10.440;2022-10-22T21:23:08;11.90;99.90
32107;DHT22;18622;51.998;10.440;2022-10-22T21:25:36;11.80;99.90
32107;DHT22;18622;51.998;10.440;2022-10-22T21:28:04;11.80;99.90
32107;DHT22;18622;51.998;10.440;2022-10-22T21:30:32;11.80;99.90
32107;DHT22;18622;51.998;10.440;2022-10-22T21:33:00;11.80;99.90
32107;DHT22;18622;51.998;10.440;2022-10-22T21:35:27;11.80;99.90
32107;DHT22;18622;51.998;10.440;2022-10-22T21:37:55;11.70;99.90
32107;DHT22;18622;51.998;10.440;2022-10-22T21:40:23;11.70;99.90
32107;DHT22;18622;51.998;10.440;2022-10-22T21:42:52;11.60;99.90
